Time;durP1;ratioP1;P1;durP2;ratioP2;P2;SDS_P1;SDS_P2;PMS_P1;PMS_P2;Temp;Humidity;BMP_temperature;BMP_pressure;BME280_temperature;BME280_humidity;BME280_pressure;Samples;Min_cycle;Max_cycle;Signal;HPM_P1;HPM_P2
2022/06/28 00:02:18;;;;;;;1.70;1.60;;;23.90;99.90;;;;;;6152676;28;89090;-66
2022/06/28 00:05:22;;;;;;;1.95;1.40;;;24.00;99.90;;;;;;6138045;28;87220;-67
2022/06/28 00:08:24;;;;;;;3.60;2.13;;;24.00;99.90;;;;;;6154750;28;88105;-66
2022/06/28 00:11:26;;;;;;;2.20;1.40;;;24.10;99.90;;;;;;6159766;28;89107;-67
2022/06/28 00:17:47;;;;;;;2.38;1.80;;;24.30;99.90;;;;;;6144220;28;87299;-66
2022/06/28 00:20:51;;;;;;;1.77;1.42;;;24.30;99.90;;;;;;6150498;28;88103;-67
2022/06/28 00:23:53;;;;;;;1.75;1.65;;;24.40;99.90;;;;;;6134903;28;89115;-67
2022/06/28 00:26:55;;;;;;;1.73;1.63;;;24.50;99.90;;;;;;6144137;28;89280;-66
2022/06/28 00:29:57;;;;;;;1.63;1.52;;;24.50;99.90;;;;;;6143258;28;89010;-66
2022/06/28 00:32:59;;;;;;;2.00;1.80;;;24.60;99.90;;;;;;6149445;28;89374;-66
2022/06/28 00:36:03;;;;;;;1.92;1.73;;;24.50;99.90;;;;;;6137003;28;88327;-66
2022/06/28 00:39:05;;;;;;;2.35;1.70;;;24.60;99.90;;;;;;6150118;28;89029;-66
2022/06/28 00:42:09;;;;;;;1.90;1.80;;;24.50;99.90;;;;;;6147339;28;88772;-66
2022/06/28 00:45:12;;;;;;;3.58;2.00;;;24.40;99.90;;;;;;6149205;28;88888;-66
2022/06/28 00:48:16;;;;;;;1.90;1.65;;;24.40;99.90;;;;;;6157311;28;89077;-67
2022/06/28 00:51:20;;;;;;;2.13;1.92;;;24.50;99.90;;;;;;6152772;28;89394;-67
2022/06/28 00:54:22;;;;;;;3.05;1.80;;;24.40;99.90;;;;;;6143914;28;89037;-66
2022/06/28 00:57:24;;;;;;;2.97;1.60;;;24.40;99.90;;;;;;6156407;28;89200;-66
2022/06/28 01:00:26;;;;;;;1.75;1.55;;;24.50;99.90;;;;;;6136092;28;88317;-66
2022/06/28 01:03:29;;;;;;;2.28;1.90;;;24.50;99.90;;;;;;6157261;28;89049;-66
2022/06/28 01:06:32;;;;;;;2.13;1.90;;;24.50;99.90;;;;;;6140753;28;88321;-67
2022/06/28 01:09:34;;;;;;;2.03;1.75;;;24.50;99.90;;;;;;6156656;28;89730;-66
2022/06/28 01:12:36;;;;;;;2.17;1.90;;;24.60;99.90;;;;;;6141722;28;87730;-66
2022/06/28 01:15:41;;;;;;;3.65;2.00;;;24.60;99.90;;;;;;6132681;28;90035;-66
2022/06/28 01:18:43;;;;;;;4.22;1.75;;;24.60;99.90;;;;;;6150406;28;89062;-66
2022/06/28 01:21:49;;;;;;;2.13;1.70;;;24.60;99.90;;;;;;6148767;28;89185;-66
2022/06/28 01:24:52;;;;;;;2.28;1.65;;;24.60;99.90;;;;;;6142885;28;89508;-66
2022/06/28 01:27:56;;;;;;;2.30;2.05;;;24.60;99.90;;;;;;6144669;28;89381;-66
2022/06/28 01:30:58;;;;;;;2.47;1.90;;;24.60;99.90;;;;;;6141395;28;89178;-66
2022/06/28 01:34:02;;;;;;;2.08;1.80;;;24.60;99.90;;;;;;6136558;28;89087;-66
2022/06/28 01:37:05;;;;;;;2.13;1.80;;;24.60;99.90;;;;;;6146370;28;88413;-66
2022/06/28 01:40:10;;;;;;;2.80;1.80;;;24.60;99.90;;;;;;6145491;28;89144;-66
2022/06/28 01:43:12;;;;;;;5.32;2.10;;;24.60;99.90;;;;;;6133600;28;89536;-66
2022/06/28 01:46:15;;;;;;;2.42;2.20;;;24.60;99.90;;;;;;6132358;28;90071;-66
2022/06/28 01:49:17;;;;;;;2.40;1.80;;;24.60;99.90;;;;;;6132829;28;89173;-66
2022/06/28 01:52:20;;;;;;;2.20;1.90;;;24.60;99.90;;;;;;6133158;28;89466;-66
2022/06/28 01:55:23;;;;;;;2.00;1.80;;;24.60;99.90;;;;;;6151704;28;89250;-66
2022/06/28 01:58:25;;;;;;;2.65;2.08;;;24.60;99.90;;;;;;6143581;28;87963;-66
2022/06/28 02:01:27;;;;;;;3.50;2.05;;;24.60;99.90;;;;;;6143635;28;89079;-66
2022/06/28 02:04:30;;;;;;;2.05;1.88;;;24.60;99.90;;;;;;6145377;28;89049;-66
2022/06/28 02:07:32;;;;;;;2.95;1.90;;;24.70;99.90;;;;;;6157088;28;88620;-66
2022/06/28 02:10:35;;;;;;;2.60;1.80;;;24.70;99.90;;;;;;6144762;28;89102;-66
2022/06/28 02:13:37;;;;;;;2.83;1.92;;;24.60;99.90;;;;;;6154238;28;87999;-66
2022/06/28 02:16:40;;;;;;;2.10;1.90;;;24.70;99.90;;;;;;6141809;28;90074;-66
2022/06/28 02:19:42;;;;;;;2.20;1.90;;;24.60;99.90;;;;;;6143865;28;87708;-66
2022/06/28 02:22:44;;;;;;;3.35;1.80;;;24.60;99.90;;;;;;6156448;28;88345;-66
2022/06/28 02:25:47;;;;;;;2.72;2.15;;;24.60;99.90;;;;;;6153315;28;89418;-66
2022/06/28 02:28:49;;;;;;;2.63;1.98;;;24.60;99.90;;;;;;6151987;28;89115;-66
2022/06/28 02:31:51;;;;;;;2.85;2.10;;;24.60;99.90;;;;;;6141240;28;89051;-66
2022/06/28 02:41:33;;;;;;;2.83;2.30;;;24.60;99.90;;;;;;6153239;28;87125;-67
2022/06/28 02:44:35;;;;;;;3.22;2.40;;;24.60;99.90;;;;;;6152940;28;87989;-66
2022/06/28 02:47:37;;;;;;;2.50;2.10;;;24.50;99.90;;;;;;6143860;28;88733;-66
2022/06/28 02:50:39;;;;;;;2.78;2.47;;;24.60;99.90;;;;;;6145915;28;89013;-67
2022/06/28 02:53:42;;;;;;;2.55;2.25;;;24.60;99.90;;;;;;6136666;28;87632;-66
2022/06/28 02:56:45;;;;;;;4.63;2.20;;;24.50;99.90;;;;;;6156363;28;89405;-66
2022/06/28 02:59:47;;;;;;;2.28;2.05;;;24.60;99.90;;;;;;6139966;28;89198;-66
2022/06/28 03:02:50;;;;;;;3.00;2.30;;;24.60;99.90;;;;;;6154206;28;89162;-66
2022/06/28 03:05:52;;;;;;;2.58;2.05;;;24.60;99.90;;;;;;6146927;28;89223;-66
2022/06/28 03:08:54;;;;;;;3.70;2.03;;;24.60;99.90;;;;;;6160218;28;90274;-66
2022/06/28 03:11:57;;;;;;;2.90;2.20;;;24.60;99.90;;;;;;6155975;28;89399;-66
2022/06/28 03:14:59;;;;;;;2.58;2.33;;;24.60;99.90;;;;;;6153581;28;89113;-66
2022/06/28 03:18:01;;;;;;;3.10;2.15;;;24.60;99.90;;;;;;6148354;28;89954;-66
2022/06/28 03:21:04;;;;;;;2.95;2.20;;;24.60;99.90;;;;;;6150401;28;89024;-66
2022/06/28 03:24:07;;;;;;;3.20;2.30;;;24.60;99.90;;;;;;6145834;28;88391;-66
2022/06/28 03:27:10;;;;;;;2.47;2.28;;;24.60;99.90;;;;;;6148574;28;89186;-66
2022/06/28 03:30:13;;;;;;;2.38;2.10;;;24.60;99.90;;;;;;6159633;28;87814;-66
2022/06/28 03:33:15;;;;;;;2.22;2.03;;;24.60;99.90;;;;;;6146224;28;89061;-66
2022/06/28 03:36:17;;;;;;;3.03;1.95;;;24.60;99.90;;;;;;6145827;28;89125;-66
2022/06/28 03:39:19;;;;;;;2.10;1.90;;;24.70;99.90;;;;;;6158467;28;88474;-66
2022/06/28 03:42:23;;;;;;;4.40;2.10;;;24.70;99.90;;;;;;6155426;28;89011;-66
2022/06/28 03:45:25;;;;;;;2.13;1.92;;;24.70;99.90;;;;;;6138753;28;89104;-66
2022/06/28 03:48:27;;;;;;;4.10;2.33;;;24.70;99.90;;;;;;6155888;28;90353;-66
2022/06/28 03:51:29;;;;;;;1.50;1.40;;;24.70;99.90;;;;;;6147759;28;90494;-66
2022/06/28 03:54:31;;;;;;;2.20;1.70;;;24.70;99.90;;;;;;6144858;28;89036;-66
2022/06/28 03:57:35;;;;;;;1.85;1.33;;;24.70;99.90;;;;;;6155915;28;89107;-66
2022/06/28 04:00:37;;;;;;;2.60;1.77;;;24.70;99.90;;;;;;6152242;28;89895;-66
2022/06/28 04:03:39;;;;;;;2.05;1.60;;;24.70;99.90;;;;;;6146969;28;89070;-66
2022/06/28 04:06:41;;;;;;;2.28;1.60;;;24.70;99.90;;;;;;6134450;28;87980;-67
2022/06/28 04:09:42;;;;;;;2.85;1.83;;;24.70;99.90;;;;;;6147054;28;87196;-66
2022/06/28 04:12:46;;;;;;;5.30;1.90;;;24.70;99.90;;;;;;6129649;28;89191;-66
2022/06/28 04:15:48;;;;;;;3.38;1.60;;;24.70;99.90;;;;;;6139712;28;88583;-66
2022/06/28 04:18:50;;;;;;;2.35;1.50;;;24.70;99.90;;;;;;6145497;28;90003;-66
2022/06/28 04:21:52;;;;;;;1.85;1.60;;;24.70;99.90;;;;;;6156772;28;89824;-66
2022/06/28 04:24:54;;;;;;;2.85;1.60;;;24.70;99.90;;;;;;6145809;28;89430;-66
2022/06/28 04:27:58;;;;;;;2.47;1.50;;;24.70;99.90;;;;;;6155070;28;89080;-66
2022/06/28 04:31:00;;;;;;;3.15;1.73;;;24.70;99.90;;;;;;6137613;28;88879;-65
2022/06/28 04:34:02;;;;;;;2.67;1.70;;;24.70;99.90;;;;;;6133902;28;89122;-66
2022/06/28 04:37:05;;;;;;;6.30;1.95;;;24.70;99.90;;;;;;6135886;28;89027;-66
2022/06/28 04:40:07;;;;;;;3.53;2.00;;;24.70;99.90;;;;;;6144735;28;87225;-66
2022/06/28 04:43:11;;;;;;;2.85;1.63;;;24.70;99.90;;;;;;6158306;28;89111;-66
2022/06/28 04:46:13;;;;;;;3.53;1.83;;;24.70;99.90;;;;;;6152395;28;88040;-66
2022/06/28 04:49:15;;;;;;;2.40;1.63;;;24.70;99.90;;;;;;6134436;28;89973;-66
2022/06/28 04:52:17;;;;;;;4.07;1.60;;;24.70;99.90;;;;;;6146079;28;91022;-66
2022/06/28 04:55:19;;;;;;;5.63;1.80;;;24.70;99.90;;;;;;6142549;28;89173;-66
2022/06/28 04:58:23;;;;;;;4.10;1.90;;;24.60;99.90;;;;;;6152577;28;89082;-66
2022/06/28 05:01:25;;;;;;;5.05;2.30;;;24.60;99.90;;;;;;6140634;28;87734;-66
2022/06/28 05:04:27;;;;;;;4.55;2.20;;;24.60;99.90;;;;;;6136238;28;89139;-66
2022/06/28 05:07:29;;;;;;;5.53;2.95;;;24.70;99.90;;;;;;6144466;28;89542;-66
2022/06/28 05:10:31;;;;;;;5.40;2.58;;;24.70;99.90;;;;;;6154157;28;88714;-66
2022/06/28 05:13:34;;;;;;;4.30;2.20;;;24.60;99.90;;;;;;6145564;28;89311;-66
2022/06/28 05:16:36;;;;;;;2.97;2.40;;;24.60;99.90;;;;;;6145536;28;89192;-66
2022/06/28 05:19:38;;;;;;;2.80;2.30;;;24.60;99.90;;;;;;6148790;28;90313;-66
2022/06/28 05:22:40;;;;;;;4.40;2.10;;;24.70;99.90;;;;;;6147689;28;89067;-66
2022/06/28 05:25:42;;;;;;;3.83;2.40;;;24.70;99.90;;;;;;6153769;28;89093;-66
2022/06/28 05:28:45;;;;;;;3.65;2.58;;;24.70;99.90;;;;;;6143180;28;89115;-66
2022/06/28 05:31:48;;;;;;;5.28;2.75;;;24.70;99.90;;;;;;6142089;28;89062;-66
2022/06/28 05:34:50;;;;;;;2.67;2.20;;;24.70;99.90;;;;;;6133848;28;89103;-66
2022/06/28 05:37:51;;;;;;;3.05;2.17;;;24.70;99.90;;;;;;6157255;28;89259;-66
2022/06/28 05:40:53;;;;;;;3.55;2.20;;;24.70;99.90;;;;;;6143701;28;88582;-66
2022/06/28 05:43:57;;;;;;;2.95;1.90;;;24.70;99.90;;;;;;6135668;28;89388;-66
2022/06/28 05:46:59;;;;;;;2.95;1.92;;;24.70;99.90;;;;;;6152199;28;88936;-66
2022/06/28 05:50:01;;;;;;;2.60;2.10;;;24.80;99.90;;;;;;6155593;28;90473;-66
2022/06/28 05:53:03;;;;;;;2.13;1.92;;;24.80;99.90;;;;;;6152731;28;89628;-66
2022/06/28 05:56:05;;;;;;;2.90;2.22;;;24.80;99.90;;;;;;6145024;28;89109;-66
2022/06/28 05:59:08;;;;;;;2.20;1.98;;;24.80;99.90;;;;;;6131783;28;89002;-66
2022/06/28 06:02:10;;;;;;;3.15;1.92;;;24.80;99.90;;;;;;6156857;28;88329;-66
2022/06/28 06:05:12;;;;;;;2.28;1.90;;;24.80;99.90;;;;;;6146358;28;87968;-66
2022/06/28 06:08:15;;;;;;;2.65;2.03;;;24.90;99.90;;;;;;6140502;28;89591;-66
2022/06/28 06:11:17;;;;;;;2.58;2.38;;;24.80;99.90;;;;;;6137143;28;88318;-66
2022/06/28 06:14:21;;;;;;;2.15;1.95;;;24.80;99.90;;;;;;6131991;28;89285;-66
2022/06/28 06:17:23;;;;;;;2.72;2.10;;;24.90;99.90;;;;;;6147348;28;89361;-66
2022/06/28 06:20:25;;;;;;;2.75;2.33;;;24.90;99.90;;;;;;6141703;28;90407;-66
2022/06/28 06:23:27;;;;;;;2.97;2.33;;;24.90;99.90;;;;;;6141441;28;89313;-66
2022/06/28 06:26:31;;;;;;;2.65;2.38;;;24.90;99.90;;;;;;6144362;28;89046;-66
2022/06/28 06:29:35;;;;;;;2.90;2.30;;;24.90;99.90;;;;;;6133398;28;89086;-66
2022/06/28 06:32:37;;;;;;;3.33;2.63;;;24.90;99.90;;;;;;6132592;28;89111;-66
2022/06/28 06:35:39;;;;;;;2.40;2.20;;;24.90;99.90;;;;;;6145944;28;89095;-65
2022/06/28 06:38:41;;;;;;;2.53;2.30;;;24.90;99.90;;;;;;6153664;28;89074;-66
2022/06/28 06:41:43;;;;;;;2.30;2.10;;;24.90;99.90;;;;;;6156606;28;87577;-66
2022/06/28 06:44:47;;;;;;;2.50;2.30;;;24.90;99.90;;;;;;6153076;28;88924;-66
2022/06/28 06:47:49;;;;;;;2.78;2.22;;;24.90;99.90;;;;;;6151676;28;89086;-66
2022/06/28 06:50:51;;;;;;;2.97;2.40;;;24.90;99.90;;;;;;6135752;28;90055;-66
2022/06/28 06:53:53;;;;;;;2.60;2.40;;;24.90;99.90;;;;;;6138072;28;89456;-66
2022/06/28 06:56:55;;;;;;;3.10;2.20;;;24.90;99.90;;;;;;6155713;28;89195;-66
2022/06/28 06:59:58;;;;;;;2.58;2.15;;;24.90;99.90;;;;;;6146259;28;89106;-66
2022/06/28 07:03:02;;;;;;;2.53;2.03;;;24.90;99.90;;;;;;6139674;28;89103;-66
2022/06/28 07:06:04;;;;;;;3.20;2.20;;;24.90;99.90;;;;;;6152156;28;89178;-66
2022/06/28 07:09:06;;;;;;;3.13;2.15;;;24.90;99.90;;;;;;6157408;28;88982;-66
2022/06/28 07:12:08;;;;;;;2.50;2.30;;;24.90;99.90;;;;;;6154884;28;88322;-66
2022/06/28 07:15:12;;;;;;;2.55;2.35;;;24.90;99.90;;;;;;6150238;28;89052;-66
2022/06/28 07:18:14;;;;;;;2.42;2.22;;;24.90;99.90;;;;;;6145888;28;89128;-66
2022/06/28 07:21:16;;;;;;;3.88;2.10;;;24.90;99.90;;;;;;6149312;28;90097;-66
2022/06/28 07:24:18;;;;;;;3.05;2.10;;;24.90;99.90;;;;;;6157977;28;88949;-66
2022/06/28 07:27:20;;;;;;;2.40;2.20;;;24.90;99.90;;;;;;6157841;28;89146;-66
2022/06/28 07:30:24;;;;;;;2.45;1.98;;;24.90;99.90;;;;;;6154154;28;89128;-66
2022/06/28 07:33:26;;;;;;;2.30;2.10;;;24.90;99.90;;;;;;6135071;28;89106;-66
2022/06/28 07:36:28;;;;;;;2.40;2.20;;;24.90;99.90;;;;;;6136717;28;89385;-66
2022/06/28 07:39:30;;;;;;;2.22;2.03;;;24.90;99.90;;;;;;6147454;28;89083;-66
2022/06/28 07:42:32;;;;;;;2.67;2.17;;;24.90;99.90;;;;;;6144831;28;88357;-66
2022/06/28 07:45:36;;;;;;;2.28;2.08;;;24.90;99.90;;;;;;6157084;28;89112;-66
2022/06/28 07:48:38;;;;;;;2.40;2.20;;;24.90;99.90;;;;;;6152260;28;89061;-66
2022/06/28 07:54:59;;;;;;;2.88;2.58;;;24.90;99.90;;;;;;6134141;28;87309;-66
2022/06/28 07:58:02;;;;;;;2.20;2.00;;;24.90;99.90;;;;;;6139811;28;89178;-66
2022/06/28 08:01:05;;;;;;;2.80;2.47;;;24.90;99.90;;;;;;6142459;28;87743;-66
2022/06/28 08:04:08;;;;;;;2.80;2.50;;;24.90;99.90;;;;;;6148493;28;89058;-66
2022/06/28 08:07:09;;;;;;;2.67;2.20;;;24.90;99.90;;;;;;6151991;28;89648;-66
2022/06/28 08:10:12;;;;;;;2.70;2.08;;;24.90;99.90;;;;;;6149121;28;89251;-66
2022/06/28 08:13:16;;;;;;;3.08;2.30;;;24.90;99.90;;;;;;6144297;28;88682;-66
2022/06/28 08:16:19;;;;;;;2.38;2.17;;;24.90;99.90;;;;;;6155586;28;89820;-66
2022/06/28 08:19:21;;;;;;;3.05;2.75;;;24.90;99.90;;;;;;6132695;28;89482;-66
2022/06/28 08:22:23;;;;;;;2.47;2.10;;;24.90;99.90;;;;;;6145613;28;88878;-66
2022/06/28 08:25:25;;;;;;;2.60;2.40;;;24.90;99.90;;;;;;6147362;28;89465;-66
2022/06/28 08:28:27;;;;;;;2.83;2.20;;;24.90;99.90;;;;;;6154644;28;89696;-66
2022/06/28 08:31:31;;;;;;;2.38;2.17;;;24.90;99.90;;;;;;6134502;28;89247;-66
2022/06/28 08:34:33;;;;;;;2.47;2.28;;;24.90;99.90;;;;;;6136230;28;89302;-66
2022/06/28 08:37:35;;;;;;;2.60;2.40;;;24.90;99.90;;;;;;6154220;28;89105;-66
2022/06/28 08:40:37;;;;;;;2.60;2.40;;;24.90;99.90;;;;;;6145001;28;89075;-66
2022/06/28 08:43:39;;;;;;;2.75;2.55;;;24.90;99.90;;;;;;6143650;28;88490;-66
2022/06/28 08:46:43;;;;;;;2.78;2.58;;;24.90;99.90;;;;;;6147473;28;89155;-66
2022/06/28 08:49:52;;;;;;;3.00;2.70;;;24.90;99.90;;;;;;6149634;28;90370;-66
2022/06/28 08:52:55;;;;;;;2.97;2.58;;;24.90;99.90;;;;;;6145170;28;89913;-66
2022/06/28 08:55:57;;;;;;;2.42;2.22;;;25.00;99.90;;;;;;6136301;28;89078;-66
2022/06/28 08:59:00;;;;;;;2.88;2.67;;;25.00;99.90;;;;;;6145476;28;89072;-66
2022/06/28 09:02:06;;;;;;;2.50;2.30;;;24.90;99.90;;;;;;6136749;28;88585;-66
2022/06/28 09:05:08;;;;;;;2.50;2.30;;;24.90;99.90;;;;;;6146454;28;89036;-66
2022/06/28 09:08:10;;;;;;;3.15;2.30;;;25.00;99.90;;;;;;6149990;28;89010;-66
2022/06/28 09:11:12;;;;;;;2.40;2.20;;;25.00;99.90;;;;;;6151024;28;89166;-66
2022/06/28 09:14:22;;;;;;;2.72;2.50;;;25.00;99.90;;;;;;6152499;28;87641;-66
2022/06/28 09:17:26;;;;;;;2.50;2.30;;;25.00;99.90;;;;;;6152129;28;88978;-66
2022/06/28 09:20:38;;;;;;;3.13;2.50;;;25.00;99.90;;;;;;6147271;28;89142;-66
2022/06/28 09:23:42;;;;;;;3.05;2.83;;;25.00;99.90;;;;;;6152508;28;90141;-66
2022/06/28 09:26:44;;;;;;;2.90;2.67;;;25.00;99.90;;;;;;6147215;28;89066;-66
2022/06/28 09:29:47;;;;;;;2.90;2.70;;;25.00;99.90;;;;;;6146320;28;87934;-66
2022/06/28 09:32:51;;;;;;;2.80;2.60;;;25.00;99.90;;;;;;6132556;28;89049;-66
2022/06/28 09:35:53;;;;;;;2.50;2.30;;;25.00;99.90;;;;;;6133005;28;89091;-66
2022/06/28 09:38:57;;;;;;;2.33;2.13;;;25.00;99.90;;;;;;6137445;28;89504;-66
2022/06/28 09:42:01;;;;;;;2.72;2.53;;;25.00;99.90;;;;;;6143035;28;89062;-66
2022/06/28 09:45:03;;;;;;;2.65;2.45;;;25.00;99.90;;;;;;6150823;28;90370;-66
2022/06/28 09:48:08;;;;;;;2.60;2.40;;;25.00;99.90;;;;;;6147828;28;89071;-66
2022/06/28 09:51:11;;;;;;;3.85;2.78;;;25.00;99.90;;;;;;6145292;28;89381;-66
2022/06/28 09:54:13;;;;;;;2.45;2.25;;;25.00;99.90;;;;;;6132971;28;90227;-66
2022/06/28 09:57:19;;;;;;;2.55;2.35;;;25.00;99.90;;;;;;6134688;28;89061;-66
2022/06/28 10:00:24;;;;;;;2.63;2.42;;;25.00;99.90;;;;;;6154785;28;89396;-66
2022/06/28 10:03:28;;;;;;;3.03;2.50;;;25.00;99.90;;;;;;6154751;28;89075;-66
2022/06/28 10:06:30;;;;;;;2.70;2.50;;;25.00;99.90;;;;;;6149233;28;89124;-66
2022/06/28 10:09:32;;;;;;;2.70;2.50;;;25.00;99.90;;;;;;6136334;28;89103;-66
2022/06/28 10:15:58;;;;;;;2.60;2.40;;;25.00;99.90;;;;;;6147026;28;86660;-66
2022/06/28 10:19:03;;;;;;;2.75;2.55;;;25.00;99.90;;;;;;6143372;28;88934;-66
2022/06/28 10:22:11;;;;;;;3.05;2.75;;;25.10;99.90;;;;;;6150654;28;89353;-66
2022/06/28 10:25:15;;;;;;;2.80;2.60;;;25.00;99.90;;;;;;6144364;28;90152;-66
2022/06/28 10:28:28;;;;;;;2.67;2.47;;;25.00;99.90;;;;;;6144219;28;90071;-66
2022/06/28 10:31:38;;;;;;;2.88;2.67;;;25.00;99.90;;;;;;6145414;28;89084;-66
2022/06/28 10:34:52;;;;;;;3.03;2.60;;;25.10;99.90;;;;;;6143030;28;88988;-66
2022/06/28 10:38:18;;;;;;;2.60;2.40;;;25.10;99.90;;;;;;6144161;28;89288;-66
2022/06/28 10:41:20;;;;;;;3.03;2.80;;;25.10;99.90;;;;;;6143080;28;88420;-66
2022/06/28 10:44:26;;;;;;;3.00;2.80;;;25.10;99.90;;;;;;6142890;28;89442;-66
2022/06/28 10:47:28;;;;;;;3.00;2.80;;;25.00;99.90;;;;;;6136493;28;88944;-66
2022/06/28 10:50:31;;;;;;;3.10;2.90;;;25.10;99.90;;;;;;6136039;28;89043;-66
2022/06/28 10:54:06;;;;;;;3.10;2.90;;;25.10;99.90;;;;;;6144696;28;87975;-66
2022/06/28 10:57:21;;;;;;;3.20;3.00;;;25.10;99.90;;;;;;6147737;28;90033;-66
2022/06/28 11:00:26;;;;;;;3.20;3.00;;;25.10;99.90;;;;;;6140514;28;89054;-66
2022/06/28 11:03:28;;;;;;;3.28;3.08;;;25.10;99.90;;;;;;6136736;28;89300;-66
2022/06/28 11:06:41;;;;;;;3.53;3.22;;;25.10;99.90;;;;;;6144379;28;88385;-66
2022/06/28 11:10:04;;;;;;;3.40;3.10;;;25.10;99.90;;;;;;6131220;28;89093;-66
2022/06/28 11:13:24;;;;;;;3.38;3.10;;;25.10;99.90;;;;;;6144064;28;89899;-67
2022/06/28 11:16:45;;;;;;;3.33;3.03;;;25.10;99.90;;;;;;6153551;28;89119;-66
2022/06/28 11:19:53;;;;;;;3.30;3.00;;;25.10;99.90;;;;;;6139839;28;88608;-66
2022/06/28 11:22:57;;;;;;;3.05;2.85;;;25.10;99.90;;;;;;6146460;28;89061;-66
2022/06/28 11:29:19;;;;;;;3.05;2.85;;;25.10;99.90;;;;;;6137544;28;88225;-66
2022/06/28 11:32:24;;;;;;;3.15;2.90;;;25.10;99.90;;;;;;6148893;28;89314;-67
2022/06/28 11:35:28;;;;;;;3.00;2.78;;;25.10;99.90;;;;;;6147225;28;89321;-66
2022/06/28 11:38:32;;;;;;;3.00;2.80;;;25.10;99.90;;;;;;6148275;28;90123;-66
2022/06/28 11:41:35;;;;;;;3.00;2.70;;;25.10;99.90;;;;;;6149808;28;88256;-66
2022/06/28 11:44:37;;;;;;;3.30;3.00;;;25.10;99.90;;;;;;6157141;28;89334;-66
2022/06/28 11:47:42;;;;;;;3.13;2.80;;;25.10;99.90;;;;;;6156858;28;89105;-66
2022/06/28 11:50:46;;;;;;;2.80;2.60;;;25.10;99.90;;;;;;6144629;28;88307;-66
2022/06/28 11:53:49;;;;;;;2.88;2.55;;;25.10;99.90;;;;;;6155070;28;89052;-66
2022/06/28 11:56:53;;;;;;;3.22;3.00;;;25.10;99.90;;;;;;6149201;28;89072;-66
2022/06/28 11:59:57;;;;;;;3.20;3.00;;;25.10;99.90;;;;;;6143316;28;89959;-66
2022/06/28 12:03:04;;;;;;;3.22;3.03;;;25.10;99.90;;;;;;6156187;28;89177;-66
2022/06/28 12:06:06;;;;;;;2.80;2.60;;;25.10;99.90;;;;;;6136342;28;89324;-66
2022/06/28 12:09:11;;;;;;;2.90;2.70;;;25.10;99.90;;;;;;6142753;28;89063;-66
2022/06/28 12:12:13;;;;;;;3.00;2.80;;;25.20;99.90;;;;;;6150558;28;88185;-66
2022/06/28 12:15:16;;;;;;;3.00;2.80;;;25.10;99.90;;;;;;6147398;28;89200;-66
2022/06/28 12:18:18;;;;;;;3.45;3.00;;;25.20;99.90;;;;;;6134884;28;89122;-66
2022/06/28 12:21:20;;;;;;;3.30;3.10;;;25.20;99.90;;;;;;6134684;28;88638;-66
2022/06/28 12:24:38;;;;;;;3.15;2.85;;;25.10;99.90;;;;;;6142525;28;89138;-66
2022/06/28 12:27:40;;;;;;;3.10;2.90;;;25.10;99.90;;;;;;6145857;28;87907;-66
2022/06/28 12:30:42;;;;;;;2.90;2.70;;;25.20;99.90;;;;;;6154655;28;89786;-67
2022/06/28 12:33:44;;;;;;;3.17;2.88;;;25.20;99.90;;;;;;6142799;28;88053;-67
2022/06/28 12:36:46;;;;;;;3.63;3.33;;;25.20;99.90;;;;;;6143112;28;89077;-66
2022/06/28 12:39:49;;;;;;;3.55;3.25;;;25.20;99.90;;;;;;6147397;28;89157;-67
2022/06/28 12:42:51;;;;;;;3.45;3.15;;;25.20;99.90;;;;;;6146686;28;89144;-66
2022/06/28 12:45:53;;;;;;;3.30;3.00;;;25.20;99.90;;;;;;6145930;28;89398;-66
2022/06/28 12:48:55;;;;;;;3.17;2.90;;;25.20;99.90;;;;;;6148503;28;87869;-67
2022/06/28 12:51:57;;;;;;;3.28;3.00;;;25.20;99.90;;;;;;6145386;28;88695;-66
2022/06/28 12:55:00;;;;;;;3.20;2.95;;;25.20;99.90;;;;;;6156784;28;88712;-66
2022/06/28 12:58:02;;;;;;;2.83;2.63;;;25.20;99.90;;;;;;6134470;28;89107;-66
2022/06/28 13:01:04;;;;;;;3.13;2.92;;;25.20;99.90;;;;;;6155616;28;90001;-67
2022/06/28 13:04:08;;;;;;;3.00;2.80;;;25.20;99.90;;;;;;6144220;28;89274;-67
2022/06/28 13:07:10;;;;;;;3.10;2.90;;;25.20;99.90;;;;;;6136224;28;89391;-67
2022/06/28 13:10:14;;;;;;;3.10;2.90;;;25.20;99.90;;;;;;6138565;28;90084;-67
2022/06/28 13:13:20;;;;;;;3.30;3.10;;;25.20;99.90;;;;;;6152838;28;89085;-66
2022/06/28 13:16:22;;;;;;;3.00;2.80;;;25.20;99.90;;;;;;6136096;28;89375;-66
2022/06/28 13:19:24;;;;;;;3.55;3.25;;;25.20;99.90;;;;;;6143207;28;89089;-67
2022/06/28 13:22:26;;;;;;;3.17;2.97;;;25.20;99.90;;;;;;6141460;28;88412;-66
2022/06/28 13:25:29;;;;;;;3.40;3.10;;;25.20;99.90;;;;;;6140451;28;89070;-67
2022/06/28 13:28:32;;;;;;;3.13;2.92;;;25.20;99.90;;;;;;6133515;28;89667;-66
2022/06/28 13:31:34;;;;;;;3.55;3.25;;;25.20;99.90;;;;;;6145184;28;90086;-67
2022/06/28 13:34:36;;;;;;;3.50;3.20;;;25.20;99.90;;;;;;6145917;28;89487;-66
2022/06/28 13:37:38;;;;;;;3.10;2.90;;;25.20;99.90;;;;;;6155772;28;89639;-66
2022/06/28 13:40:43;;;;;;;2.90;2.70;;;25.20;99.90;;;;;;6142831;28;89402;-66
2022/06/28 13:43:45;;;;;;;3.13;2.92;;;25.20;99.90;;;;;;6136346;28;89221;-66
2022/06/28 13:46:47;;;;;;;3.00;2.80;;;25.20;99.90;;;;;;6132930;28;89098;-67
2022/06/28 13:49:49;;;;;;;3.10;2.90;;;25.20;99.90;;;;;;6152154;28;89318;-66
2022/06/28 13:52:52;;;;;;;3.33;3.10;;;25.20;99.90;;;;;;6155151;28;88383;-66
2022/06/28 13:55:56;;;;;;;3.20;2.90;;;25.20;99.90;;;;;;6156358;28;89465;-66
2022/06/28 13:58:58;;;;;;;3.20;3.00;;;25.20;99.90;;;;;;6143758;28;89068;-66
2022/06/28 14:02:01;;;;;;;3.25;2.95;;;25.20;99.90;;;;;;6145817;28;89975;-66
2022/06/28 14:05:03;;;;;;;2.97;2.78;;;25.30;99.90;;;;;;6143319;28;89008;-67
2022/06/28 14:08:06;;;;;;;3.00;2.80;;;25.20;99.90;;;;;;6140690;28;89134;-67
2022/06/28 14:11:10;;;;;;;2.88;2.67;;;25.20;99.90;;;;;;6145112;28;89697;-67
2022/06/28 14:14:12;;;;;;;3.15;2.95;;;25.20;99.90;;;;;;6143623;28;88307;-67
2022/06/28 14:17:14;;;;;;;3.10;2.90;;;25.20;99.90;;;;;;6145167;28;88989;-67
2022/06/28 14:20:16;;;;;;;3.25;2.95;;;25.30;99.90;;;;;;6136296;28;88998;-66
2022/06/28 14:23:18;;;;;;;2.85;2.65;;;25.20;99.90;;;;;;6134423;28;87484;-67
2022/06/28 14:26:22;;;;;;;3.10;2.90;;;25.20;99.90;;;;;;6146294;28;89286;-67
2022/06/28 14:29:25;;;;;;;2.65;2.45;;;25.20;99.90;;;;;;6144423;28;89025;-66
2022/06/28 14:32:27;;;;;;;2.88;2.67;;;25.20;99.90;;;;;;6143768;28;90084;-67
2022/06/28 14:35:31;;;;;;;3.47;3.17;;;25.30;99.90;;;;;;6147244;28;89236;-67
2022/06/28 14:38:33;;;;;;;3.10;2.90;;;25.30;99.90;;;;;;6148121;28;88978;-67
2022/06/28 14:41:37;;;;;;;3.17;2.97;;;25.30;99.90;;;;;;6142511;28;89101;-67
2022/06/28 14:44:39;;;;;;;3.58;3.28;;;25.30;99.90;;;;;;6153629;28;88967;-66
2022/06/28 14:47:42;;;;;;;3.08;2.83;;;25.30;99.90;;;;;;6138931;28;89074;-67
2022/06/28 14:50:44;;;;;;;2.97;2.78;;;25.30;99.90;;;;;;6133376;28;89140;-66
2022/06/28 14:53:46;;;;;;;3.40;3.10;;;25.30;99.90;;;;;;6153362;28;88829;-67
2022/06/28 14:56:49;;;;;;;3.13;2.92;;;25.20;99.90;;;;;;6149006;28;89275;-67
2022/06/28 14:59:51;;;;;;;3.30;3.10;;;25.30;99.90;;;;;;6136018;28;88978;-67
2022/06/28 15:02:53;;;;;;;3.22;3.03;;;25.30;99.90;;;;;;6152443;28;90340;-67
2022/06/28 15:05:55;;;;;;;3.28;3.00;;;25.30;99.90;;;;;;6147089;28;90258;-66
2022/06/28 15:08:57;;;;;;;3.65;3.35;;;25.30;99.90;;;;;;6157305;28;89099;-66
2022/06/28 15:12:01;;;;;;;3.33;3.03;;;25.30;99.90;;;;;;6135988;28;89113;-67
2022/06/28 15:15:03;;;;;;;3.22;3.03;;;25.30;99.90;;;;;;6156888;28;89082;-66
2022/06/28 15:18:05;;;;;;;3.25;3.00;;;25.30;99.90;;;;;;6142424;28;89375;-66
2022/06/28 15:30:51;;;;;;;2.97;2.78;;;25.30;99.90;;;;;;6152066;28;89467;-66
2022/06/28 15:31:09;;;;;;;3.33;3.03;;;25.30;99.90;;;;;;6135682;28;87352;-66
2022/06/28 15:34:11;;;;;;;3.15;2.95;;;25.30;99.90;;;;;;6143367;28;90075;-67
2022/06/28 15:37:13;;;;;;;3.10;2.90;;;25.30;99.90;;;;;;6158835;28;89296;-66
2022/06/28 15:40:15;;;;;;;3.10;2.90;;;25.30;99.90;;;;;;6157167;28;89359;-66
2022/06/28 15:43:19;;;;;;;3.20;3.00;;;25.30;99.90;;;;;;6144971;28;89424;-66
2022/06/28 15:46:22;;;;;;;3.58;3.30;;;25.30;99.90;;;;;;6146434;28;89067;-66
2022/06/28 15:49:24;;;;;;;3.17;2.92;;;25.30;99.90;;;;;;6154097;28;89042;-67
2022/06/28 15:52:27;;;;;;;2.90;2.70;;;25.30;99.90;;;;;;6148898;28;89389;-66
2022/06/28 15:55:29;;;;;;;3.00;2.80;;;25.30;99.90;;;;;;6136847;28;88413;-67
2022/06/28 15:58:32;;;;;;;3.40;3.10;;;25.30;99.90;;;;;;6152666;28;89162;-66
2022/06/28 16:01:34;;;;;;;3.00;2.80;;;25.30;99.90;;;;;;6145853;28;89327;-66
2022/06/28 16:04:36;;;;;;;2.75;2.55;;;25.30;99.90;;;;;;6151765;28;90018;-66
2022/06/28 16:07:39;;;;;;;2.80;2.60;;;25.30;99.90;;;;;;6149823;28;88081;-66
2022/06/28 16:10:41;;;;;;;3.00;2.80;;;25.30;99.90;;;;;;6143194;28;89434;-67
2022/06/28 16:13:45;;;;;;;3.45;3.15;;;25.30;99.90;;;;;;6145781;28;89610;-67
2022/06/28 16:16:47;;;;;;;2.97;2.78;;;25.30;99.90;;;;;;6151308;28;89152;-66
2022/06/28 16:19:49;;;;;;;2.85;2.65;;;25.30;99.90;;;;;;6145679;28;89047;-67
2022/06/28 16:22:51;;;;;;;3.10;2.90;;;25.30;99.90;;;;;;6146116;28;89020;-67